Terminal Aerodrome Forecast
Issued by NWS

Home | Current Version | Previous Version | Text Only | Print | Product List | Glossary On
Versions: 1 2 3 4 5 6 7 8 9 10 11 12 13
034
FTUS45 KPSR 111721
TAFIPL
TAF
KIPL 111721Z 1118/1218 28005KT P6SM SKC
     FM120100 01004KT P6SM SKC
     FM120500 26005KT P6SM SKC=

USA.gov is the U.S. government's official web portal to all federal, state and local government web resources and services.